sensor_id;sensor_type;location;lat;lon;timestamp;temperature;humidity
47546;DHT22;50104;52.002;4.688;2023-04-03T00:04:11;6.20;78.40
47546;DHT22;50104;52.002;4.688;2023-04-03T00:09:12;6.10;78.50
47546;DHT22;50104;52.002;4.688;2023-04-03T00:14:13;6.00;78.40
47546;DHT22;50104;52.002;4.688;2023-04-03T00:19:14;6.00;78.40
47546;DHT22;50104;52.002;4.688;2023-04-03T00:24:15;5.90;78.20
47546;DHT22;50104;52.002;4.688;2023-04-03T00:29:16;5.90;78.40
47546;DHT22;50104;52.002;4.688;2023-04-03T00:34:17;5.80;78.30
47546;DHT22;50104;52.002;4.688;2023-04-03T00:39:17;5.80;78.40
47546;DHT22;50104;52.002;4.688;2023-04-03T00:49:37;5.60;77.80
47546;DHT22;50104;52.002;4.688;2023-04-03T00:54:38;5.60;77.80
47546;DHT22;50104;52.002;4.688;2023-04-03T00:59:46;5.50;78.00
47546;DHT22;50104;52.002;4.688;2023-04-03T01:04:48;5.50;78.00
47546;DHT22;50104;52.002;4.688;2023-04-03T01:09:52;5.40;77.80
47546;DHT22;50104;52.002;4.688;2023-04-03T01:15:00;5.40;78.00
47546;DHT22;50104;52.002;4.688;2023-04-03T01:25:12;5.20;77.80
47546;DHT22;50104;52.002;4.688;2023-04-03T01:30:14;5.20;77.80
47546;DHT22;50104;52.002;4.688;2023-04-03T01:35:17;5.10;77.90
47546;DHT22;50104;52.002;4.688;2023-04-03T01:40:18;5.10;77.90
47546;DHT22;50104;52.002;4.688;2023-04-03T01:45:20;5.00;77.70
47546;DHT22;50104;52.002;4.688;2023-04-03T01:50:21;4.90;78.00
47546;DHT22;50104;52.002;4.688;2023-04-03T01:55:22;4.90;78.10
47546;DHT22;50104;52.002;4.688;2023-04-03T02:00:23;4.80;77.90
47546;DHT22;50104;52.002;4.688;2023-04-03T02:05:24;4.70;77.80
47546;DHT22;50104;52.002;4.688;2023-04-03T02:10:24;4.70;78.20
47546;DHT22;50104;52.002;4.688;2023-04-03T02:15:25;4.60;78.00
47546;DHT22;50104;52.002;4.688;2023-04-03T02:20:26;4.60;78.60
47546;DHT22;50104;52.002;4.688;2023-04-03T02:25:27;4.50;78.30
47546;DHT22;50104;52.002;4.688;2023-04-03T02:30:28;4.50;77.70
47546;DHT22;50104;52.002;4.688;2023-04-03T02:35:29;4.40;77.80
47546;DHT22;50104;52.002;4.688;2023-04-03T02:40:30;4.40;77.50
47546;DHT22;50104;52.002;4.688;2023-04-03T02:45:31;4.30;77.50
47546;DHT22;50104;52.002;4.688;2023-04-03T02:50:32;4.20;77.60
47546;DHT22;50104;52.002;4.688;2023-04-03T02:55:33;4.20;77.50
47546;DHT22;50104;52.002;4.688;2023-04-03T03:00:34;4.10;77.70
47546;DHT22;50104;52.002;4.688;2023-04-03T03:05:35;4.10;77.90
47546;DHT22;50104;52.002;4.688;2023-04-03T03:10:36;4.00;77.70
47546;DHT22;50104;52.002;4.688;2023-04-03T03:15:37;4.00;77.60
47546;DHT22;50104;52.002;4.688;2023-04-03T03:20:38;3.90;77.80
47546;DHT22;50104;52.002;4.688;2023-04-03T03:25:39;3.90;77.90
47546;DHT22;50104;52.002;4.688;2023-04-03T03:30:40;3.80;77.60
47546;DHT22;50104;52.002;4.688;2023-04-03T03:35:41;3.80;77.80
47546;DHT22;50104;52.002;4.688;2023-04-03T03:40:42;3.70;78.20
47546;DHT22;50104;52.002;4.688;2023-04-03T03:45:44;3.70;77.90
47546;DHT22;50104;52.002;4.688;2023-04-03T03:50:45;3.60;77.90
47546;DHT22;50104;52.002;4.688;2023-04-03T03:55:45;3.60;77.90
47546;DHT22;50104;52.002;4.688;2023-04-03T04:00:46;3.50;78.10
47546;DHT22;50104;52.002;4.688;2023-04-03T04:05:47;3.50;78.00
47546;DHT22;50104;52.002;4.688;2023-04-03T04:10:48;3.40;78.20
47546;DHT22;50104;52.002;4.688;2023-04-03T04:15:49;3.40;78.50
47546;DHT22;50104;52.002;4.688;2023-04-03T04:20:50;3.40;78.50
47546;DHT22;50104;52.002;4.688;2023-04-03T04:25:51;3.30;78.50
47546;DHT22;50104;52.002;4.688;2023-04-03T04:30:52;3.30;78.20
47546;DHT22;50104;52.002;4.688;2023-04-03T04:35:53;3.30;78.30
47546;DHT22;50104;52.002;4.688;2023-04-03T04:40:54;3.20;78.40
47546;DHT22;50104;52.002;4.688;2023-04-03T04:46:06;3.20;78.60
47546;DHT22;50104;52.002;4.688;2023-04-03T04:51:08;3.10;78.70
47546;DHT22;50104;52.002;4.688;2023-04-03T04:56:08;3.10;78.70
47546;DHT22;50104;52.002;4.688;2023-04-03T05:01:10;3.10;78.60
47546;DHT22;50104;52.002;4.688;2023-04-03T05:06:11;3.00;78.90
47546;DHT22;50104;52.002;4.688;2023-04-03T05:11:12;3.00;78.60
47546;DHT22;50104;52.002;4.688;2023-04-03T05:16:13;3.00;78.60
47546;DHT22;50104;52.002;4.688;2023-04-03T05:21:14;2.90;78.60
47546;DHT22;50104;52.002;4.688;2023-04-03T05:26:15;2.90;78.70
47546;DHT22;50104;52.002;4.688;2023-04-03T05:31:16;2.90;79.20
47546;DHT22;50104;52.002;4.688;2023-04-03T05:36:17;2.80;79.30
47546;DHT22;50104;52.002;4.688;2023-04-03T05:41:18;2.80;79.60
47546;DHT22;50104;52.002;4.688;2023-04-03T05:46:19;2.80;79.40
47546;DHT22;50104;52.002;4.688;2023-04-03T05:51:28;2.80;80.00
47546;DHT22;50104;52.002;4.688;2023-04-03T05:56:31;2.80;79.60
47546;DHT22;50104;52.002;4.688;2023-04-03T06:01:32;2.80;80.00
47546;DHT22;50104;52.002;4.688;2023-04-03T06:06:54;2.80;80.00
47546;DHT22;50104;52.002;4.688;2023-04-03T06:11:57;2.80;80.20
47546;DHT22;50104;52.002;4.688;2023-04-03T06:16:59;2.80;80.30
47546;DHT22;50104;52.002;4.688;2023-04-03T06:22:00;2.80;80.30
47546;DHT22;50104;52.002;4.688;2023-04-03T06:27:01;2.90;80.50
47546;DHT22;50104;52.002;4.688;2023-04-03T06:32:02;2.90;80.30
47546;DHT22;50104;52.002;4.688;2023-04-03T06:37:03;2.90;80.40
47546;DHT22;50104;52.002;4.688;2023-04-03T06:42:03;2.90;80.60
47546;DHT22;50104;52.002;4.688;2023-04-03T06:47:05;3.00;80.70
47546;DHT22;50104;52.002;4.688;2023-04-03T06:52:06;3.00;80.80
47546;DHT22;50104;52.002;4.688;2023-04-03T06:57:07;3.10;80.80
47546;DHT22;50104;52.002;4.688;2023-04-03T07:02:10;3.10;81.00
47546;DHT22;50104;52.002;4.688;2023-04-03T07:07:12;3.20;81.30
47546;DHT22;50104;52.002;4.688;2023-04-03T07:12:13;3.40;81.90
47546;DHT22;50104;52.002;4.688;2023-04-03T07:17:14;3.60;82.50
47546;DHT22;50104;52.002;4.688;2023-04-03T07:22:15;3.90;82.80
47546;DHT22;50104;52.002;4.688;2023-04-03T07:27:16;4.20;82.90
47546;DHT22;50104;52.002;4.688;2023-04-03T07:32:18;4.50;83.00
47546;DHT22;50104;52.002;4.688;2023-04-03T07:37:19;4.80;83.10
47546;DHT22;50104;52.002;4.688;2023-04-03T07:42:20;5.10;82.70
47546;DHT22;50104;52.002;4.688;2023-04-03T07:47:20;5.30;82.50
47546;DHT22;50104;52.002;4.688;2023-04-03T07:52:21;5.60;82.10
47546;DHT22;50104;52.002;4.688;2023-04-03T07:57:22;5.80;81.50
47546;DHT22;50104;52.002;4.688;2023-04-03T08:02:23;6.00;81.50
47546;DHT22;50104;52.002;4.688;2023-04-03T08:07:24;6.10;80.80
47546;DHT22;50104;52.002;4.688;2023-04-03T08:12:25;6.30;80.90
47546;DHT22;50104;52.002;4.688;2023-04-03T08:17:28;6.40;80.90
47546;DHT22;50104;52.002;4.688;2023-04-03T08:22:30;6.50;80.80
47546;DHT22;50104;52.002;4.688;2023-04-03T08:27:31;6.60;80.80
47546;DHT22;50104;52.002;4.688;2023-04-03T08:32:33;6.70;80.90
47546;DHT22;50104;52.002;4.688;2023-04-03T08:37:36;6.90;80.90
47546;DHT22;50104;52.002;4.688;2023-04-03T08:43:03;7.00;80.90
47546;DHT22;50104;52.002;4.688;2023-04-03T08:48:31;7.10;81.00
47546;DHT22;50104;52.002;4.688;2023-04-03T08:53:36;7.30;80.80
47546;DHT22;50104;52.002;4.688;2023-04-03T08:58:56;7.50;80.50
47546;DHT22;50104;52.002;4.688;2023-04-03T09:04:01;7.70;80.50
47546;DHT22;50104;52.002;4.688;2023-04-03T09:09:13;7.80;80.30
47546;DHT22;50104;52.002;4.688;2023-04-03T09:14:33;8.00;79.90
47546;DHT22;50104;52.002;4.688;2023-04-03T09:19:45;8.20;79.70
47546;DHT22;50104;52.002;4.688;2023-04-03T09:25:15;8.40;79.00
47546;DHT22;50104;52.002;4.688;2023-04-03T09:30:21;8.70;78.10
47546;DHT22;50104;52.002;4.688;2023-04-03T09:35:27;8.90;77.60
47546;DHT22;50104;52.002;4.688;2023-04-03T09:40:39;9.10;76.50
47546;DHT22;50104;52.002;4.688;2023-04-03T09:45:46;9.30;74.70
47546;DHT22;50104;52.002;4.688;2023-04-03T09:55:53;9.70;73.80
47546;DHT22;50104;52.002;4.688;2023-04-03T10:01:02;9.90;73.90
47546;DHT22;50104;52.002;4.688;2023-04-03T10:06:04;10.10;73.50
47546;DHT22;50104;52.002;4.688;2023-04-03T10:11:23;10.30;73.30
47546;DHT22;50104;52.002;4.688;2023-04-03T10:21:48;10.80;71.90
47546;DHT22;50104;52.002;4.688;2023-04-03T10:27:24;11.00;70.10
47546;DHT22;50104;52.002;4.688;2023-04-03T10:38:15;11.40;69.60
47546;DHT22;50104;52.002;4.688;2023-04-03T10:49:03;11.80;69.10
47546;DHT22;50104;52.002;4.688;2023-04-03T10:54:24;11.90;68.50
47546;DHT22;50104;52.002;4.688;2023-04-03T10:59:43;12.10;67.60
47546;DHT22;50104;52.002;4.688;2023-04-03T11:04:49;12.30;67.30
47546;DHT22;50104;52.002;4.688;2023-04-03T11:09:55;12.50;67.20
47546;DHT22;50104;52.002;4.688;2023-04-03T11:15:01;12.70;67.00
47546;DHT22;50104;52.002;4.688;2023-04-03T11:20:29;12.90;67.20
47546;DHT22;50104;52.002;4.688;2023-04-03T11:25:36;13.10;64.80
47546;DHT22;50104;52.002;4.688;2023-04-03T11:41:29;13.60;61.90
47546;DHT22;50104;52.002;4.688;2023-04-03T11:51:57;14.00;61.10
47546;DHT22;50104;52.002;4.688;2023-04-03T11:56:58;14.10;60.60
47546;DHT22;50104;52.002;4.688;2023-04-03T12:01:59;14.20;60.60
47546;DHT22;50104;52.002;4.688;2023-04-03T12:07:16;14.40;60.20
47546;DHT22;50104;52.002;4.688;2023-04-03T12:12:37;14.50;59.20
47546;DHT22;50104;52.002;4.688;2023-04-03T12:17:39;14.60;58.90
47546;DHT22;50104;52.002;4.688;2023-04-03T12:23:06;14.70;61.00
47546;DHT22;50104;52.002;4.688;2023-04-03T12:28:29;14.80;58.90
47546;DHT22;50104;52.002;4.688;2023-04-03T12:34:04;14.90;61.40
47546;DHT22;50104;52.002;4.688;2023-04-03T12:39:44;15.00;59.90
47546;DHT22;50104;52.002;4.688;2023-04-03T12:44:59;15.10;60.60
47546;DHT22;50104;52.002;4.688;2023-04-03T12:50:21;15.20;60.30
47546;DHT22;50104;52.002;4.688;2023-04-03T12:55:24;15.30;59.80
47546;DHT22;50104;52.002;4.688;2023-04-03T13:00:32;15.40;61.30
47546;DHT22;50104;52.002;4.688;2023-04-03T13:05:35;15.40;60.40
47546;DHT22;50104;52.002;4.688;2023-04-03T13:16:10;15.60;60.40
47546;DHT22;50104;52.002;4.688;2023-04-03T13:21:18;15.70;60.70
47546;DHT22;50104;52.002;4.688;2023-04-03T13:26:26;15.80;60.80
47546;DHT22;50104;52.002;4.688;2023-04-03T13:31:35;15.90;62.60
47546;DHT22;50104;52.002;4.688;2023-04-03T13:41:54;16.00;61.90
47546;DHT22;50104;52.002;4.688;2023-04-03T13:47:37;16.10;59.30
47546;DHT22;50104;52.002;4.688;2023-04-03T13:57:59;16.20;60.50
47546;DHT22;50104;52.002;4.688;2023-04-03T14:03:31;16.30;60.00
47546;DHT22;50104;52.002;4.688;2023-04-03T14:08:45;16.30;60.10
47546;DHT22;50104;52.002;4.688;2023-04-03T14:13:46;16.40;61.30
47546;DHT22;50104;52.002;4.688;2023-04-03T14:18:49;16.40;60.50
47546;DHT22;50104;52.002;4.688;2023-04-03T14:23:51;16.50;59.20
47546;DHT22;50104;52.002;4.688;2023-04-03T14:28:54;16.60;61.00
47546;DHT22;50104;52.002;4.688;2023-04-03T14:33:56;16.60;60.60
47546;DHT22;50104;52.002;4.688;2023-04-03T14:38:58;16.70;62.20
47546;DHT22;50104;52.002;4.688;2023-04-03T14:43:59;16.70;61.40
47546;DHT22;50104;52.002;4.688;2023-04-03T14:49:00;16.80;61.60
47546;DHT22;50104;52.002;4.688;2023-04-03T14:54:01;16.80;62.20
47546;DHT22;50104;52.002;4.688;2023-04-03T14:59:04;16.90;62.60
47546;DHT22;50104;52.002;4.688;2023-04-03T15:04:11;16.90;62.80
47546;DHT22;50104;52.002;4.688;2023-04-03T15:14:21;17.20;64.30
47546;DHT22;50104;52.002;4.688;2023-04-03T15:19:23;17.30;63.20
47546;DHT22;50104;52.002;4.688;2023-04-03T15:24:24;17.40;61.90
47546;DHT22;50104;52.002;4.688;2023-04-03T15:29:25;17.40;62.20
47546;DHT22;50104;52.002;4.688;2023-04-03T15:34:26;17.40;61.30
47546;DHT22;50104;52.002;4.688;2023-04-03T15:39:27;17.50;63.60
47546;DHT22;50104;52.002;4.688;2023-04-03T15:44:28;17.50;63.60
47546;DHT22;50104;52.002;4.688;2023-04-03T15:49:30;17.50;63.70
47546;DHT22;50104;52.002;4.688;2023-04-03T15:54:33;17.60;63.20
47546;DHT22;50104;52.002;4.688;2023-04-03T15:59:34;17.60;62.30
47546;DHT22;50104;52.002;4.688;2023-04-03T16:04:35;17.60;61.90
47546;DHT22;50104;52.002;4.688;2023-04-03T16:09:37;17.60;61.80
47546;DHT22;50104;52.002;4.688;2023-04-03T16:14:38;17.50;60.30
47546;DHT22;50104;52.002;4.688;2023-04-03T16:19:38;17.40;57.90
47546;DHT22;50104;52.002;4.688;2023-04-03T16:24:40;17.10;56.40
47546;DHT22;50104;52.002;4.688;2023-04-03T16:29:40;17.00;56.20
47546;DHT22;50104;52.002;4.688;2023-04-03T16:34:41;16.80;52.70
47546;DHT22;50104;52.002;4.688;2023-04-03T16:39:43;16.60;50.80
47546;DHT22;50104;52.002;4.688;2023-04-03T16:44:44;16.40;51.50
47546;DHT22;50104;52.002;4.688;2023-04-03T16:49:45;16.10;50.50
47546;DHT22;50104;52.002;4.688;2023-04-03T16:54:47;15.90;53.80
47546;DHT22;50104;52.002;4.688;2023-04-03T16:59:49;15.70;54.80
47546;DHT22;50104;52.002;4.688;2023-04-03T17:04:51;15.40;52.30
47546;DHT22;50104;52.002;4.688;2023-04-03T17:09:53;15.20;51.60
47546;DHT22;50104;52.002;4.688;2023-04-03T17:14:54;14.90;53.30
47546;DHT22;50104;52.002;4.688;2023-04-03T17:19:55;14.70;53.70
47546;DHT22;50104;52.002;4.688;2023-04-03T17:24:56;14.40;54.40
47546;DHT22;50104;52.002;4.688;2023-04-03T17:29:57;14.10;54.70
47546;DHT22;50104;52.002;4.688;2023-04-03T17:34:59;13.80;54.60
47546;DHT22;50104;52.002;4.688;2023-04-03T17:39:59;13.60;55.10
47546;DHT22;50104;52.002;4.688;2023-04-03T17:45:00;13.30;56.20
47546;DHT22;50104;52.002;4.688;2023-04-03T17:50:02;13.10;55.90
47546;DHT22;50104;52.002;4.688;2023-04-03T17:55:04;12.90;56.80
47546;DHT22;50104;52.002;4.688;2023-04-03T18:00:06;12.60;57.00
47546;DHT22;50104;52.002;4.688;2023-04-03T18:05:09;12.40;57.10
47546;DHT22;50104;52.002;4.688;2023-04-03T18:10:10;12.20;57.50
47546;DHT22;50104;52.002;4.688;2023-04-03T18:15:11;11.90;57.80
47546;DHT22;50104;52.002;4.688;2023-04-03T18:20:15;11.70;58.80
47546;DHT22;50104;52.002;4.688;2023-04-03T18:25:17;11.50;58.70
47546;DHT22;50104;52.002;4.688;2023-04-03T18:30:18;11.30;59.20
47546;DHT22;50104;52.002;4.688;2023-04-03T18:35:19;11.10;59.30
47546;DHT22;50104;52.002;4.688;2023-04-03T18:40:20;10.90;59.40
47546;DHT22;50104;52.002;4.688;2023-04-03T18:45:22;10.70;59.70
47546;DHT22;50104;52.002;4.688;2023-04-03T18:50:23;10.50;60.40
47546;DHT22;50104;52.002;4.688;2023-04-03T18:55:24;10.30;60.30
47546;DHT22;50104;52.002;4.688;2023-04-03T19:00:25;10.10;60.30
47546;DHT22;50104;52.002;4.688;2023-04-03T19:05:26;9.90;60.50
47546;DHT22;50104;52.002;4.688;2023-04-03T19:10:27;9.80;61.00
47546;DHT22;50104;52.002;4.688;2023-04-03T19:15:28;9.60;61.40
47546;DHT22;50104;52.002;4.688;2023-04-03T19:20:29;9.50;61.20
47546;DHT22;50104;52.002;4.688;2023-04-03T19:25:30;9.40;61.60
47546;DHT22;50104;52.002;4.688;2023-04-03T19:30:31;9.30;62.10
47546;DHT22;50104;52.002;4.688;2023-04-03T19:35:32;9.10;62.00
47546;DHT22;50104;52.002;4.688;2023-04-03T19:40:33;9.00;62.00
47546;DHT22;50104;52.002;4.688;2023-04-03T19:45:37;8.90;62.50
47546;DHT22;50104;52.002;4.688;2023-04-03T19:50:39;8.70;62.80
47546;DHT22;50104;52.002;4.688;2023-04-03T19:55:40;8.70;63.00
47546;DHT22;50104;52.002;4.688;2023-04-03T20:00:41;8.50;63.40
47546;DHT22;50104;52.002;4.688;2023-04-03T20:05:41;8.40;63.50
47546;DHT22;50104;52.002;4.688;2023-04-03T20:10:42;8.30;63.70
47546;DHT22;50104;52.002;4.688;2023-04-03T20:15:43;8.20;63.80
47546;DHT22;50104;52.002;4.688;2023-04-03T20:20:55;8.10;64.00
47546;DHT22;50104;52.002;4.688;2023-04-03T20:25:59;8.00;64.00
47546;DHT22;50104;52.002;4.688;2023-04-03T20:31:00;7.90;64.20
47546;DHT22;50104;52.002;4.688;2023-04-03T20:36:01;7.80;64.40
47546;DHT22;50104;52.002;4.688;2023-04-03T20:41:03;7.70;64.80
47546;DHT22;50104;52.002;4.688;2023-04-03T20:46:04;7.70;64.70
47546;DHT22;50104;52.002;4.688;2023-04-03T20:51:13;7.60;64.90
47546;DHT22;50104;52.002;4.688;2023-04-03T20:56:16;7.50;65.10
47546;DHT22;50104;52.002;4.688;2023-04-03T21:01:21;7.40;65.00
47546;DHT22;50104;52.002;4.688;2023-04-03T21:23:40;7.10;66.00
47546;DHT22;50104;52.002;4.688;2023-04-03T21:28:41;7.00;66.00
47546;DHT22;50104;52.002;4.688;2023-04-03T21:33:43;6.90;65.90
47546;DHT22;50104;52.002;4.688;2023-04-03T21:38:44;6.90;66.10
47546;DHT22;50104;52.002;4.688;2023-04-03T21:43:45;6.80;66.30
47546;DHT22;50104;52.002;4.688;2023-04-03T21:48:46;6.80;66.30
47546;DHT22;50104;52.002;4.688;2023-04-03T21:53:51;6.70;66.50
47546;DHT22;50104;52.002;4.688;2023-04-03T21:58:53;6.60;66.70
47546;DHT22;50104;52.002;4.688;2023-04-03T22:03:56;6.60;66.70
47546;DHT22;50104;52.002;4.688;2023-04-03T22:09:02;6.50;66.80
47546;DHT22;50104;52.002;4.688;2023-04-03T22:14:03;6.40;66.90
47546;DHT22;50104;52.002;4.688;2023-04-03T22:19:04;6.40;66.80
47546;DHT22;50104;52.002;4.688;2023-04-03T22:24:05;6.30;67.00
47546;DHT22;50104;52.002;4.688;2023-04-03T22:29:06;6.30;67.20
47546;DHT22;50104;52.002;4.688;2023-04-03T22:34:07;6.20;67.10
47546;DHT22;50104;52.002;4.688;2023-04-03T22:39:08;6.10;67.20
47546;DHT22;50104;52.002;4.688;2023-04-03T22:44:11;6.10;66.20
47546;DHT22;50104;52.002;4.688;2023-04-03T22:49:12;6.00;65.60
47546;DHT22;50104;52.002;4.688;2023-04-03T22:54:13;5.90;65.60
47546;DHT22;50104;52.002;4.688;2023-04-03T22:59:14;5.80;65.20
47546;DHT22;50104;52.002;4.688;2023-04-03T23:04:14;5.70;65.60
47546;DHT22;50104;52.002;4.688;2023-04-03T23:09:15;5.60;65.90
47546;DHT22;50104;52.002;4.688;2023-04-03T23:14:16;5.50;66.80
47546;DHT22;50104;52.002;4.688;2023-04-03T23:19:17;5.40;66.40
47546;DHT22;50104;52.002;4.688;2023-04-03T23:24:18;5.40;66.70
47546;DHT22;50104;52.002;4.688;2023-04-03T23:29:19;5.30;65.90
47546;DHT22;50104;52.002;4.688;2023-04-03T23:34:20;5.20;65.70
47546;DHT22;50104;52.002;4.688;2023-04-03T23:39:21;5.10;66.40
47546;DHT22;50104;52.002;4.688;2023-04-03T23:44:22;5.10;66.30
47546;DHT22;50104;52.002;4.688;2023-04-03T23:49:23;5.00;65.90
47546;DHT22;50104;52.002;4.688;2023-04-03T23:54:24;4.90;66.10
47546;DHT22;50104;52.002;4.688;2023-04-03T23:59:25;4.90;66.10
